createdAt,value
2017-08-16T04:32:14.919Z,15.10
2017-08-16T04:34:43.199Z,16.10
2017-08-16T04:37:11.577Z,19.03
2017-08-16T04:39:39.835Z,16.47
2017-08-16T04:42:08.230Z,17.30
2017-08-16T04:44:36.515Z,16.17
2017-08-16T04:47:04.905Z,16.70
2017-08-16T04:49:33.266Z,16.10
2017-08-16T04:52:01.555Z,14.60
2017-08-16T04:54:29.927Z,14.40
2017-08-16T04:56:58.214Z,14.10
2017-08-16T04:59:26.707Z,14.70
2017-08-16T05:01:54.971Z,15.23
2017-08-16T05:04:24.183Z,14.83
2017-08-16T05:06:53.251Z,12.97
2017-08-16T05:09:21.632Z,13.40
2017-08-16T05:11:49.890Z,14.60
2017-08-16T05:14:18.178Z,11.77
2017-08-16T05:16:46.443Z,12.70
2017-08-16T05:19:15.172Z,14.47
2017-08-16T05:21:43.435Z,11.67
2017-08-16T05:24:11.794Z,12.00
2017-08-16T05:26:40.078Z,10.37
2017-08-16T05:29:08.470Z,12.10
2017-08-16T05:31:36.727Z,10.97
2017-08-16T05:34:05.106Z,9.77
2017-08-16T05:36:33.382Z,9.40
2017-08-16T05:39:01.680Z,9.67
2017-08-16T05:41:29.922Z,9.20
2017-08-16T05:43:58.314Z,9.67
2017-08-16T05:46:26.586Z,9.70
2017-08-16T05:48:54.887Z,8.80
2017-08-16T05:51:24.085Z,9.30
2017-08-16T05:53:52.463Z,9.70
2017-08-16T05:56:20.700Z,8.40
2017-08-16T05:58:49.013Z,9.60
2017-08-16T06:01:17.259Z,8.17
2017-08-16T06:03:45.655Z,7.90
2017-08-16T06:06:13.911Z,7.93
2017-08-16T06:08:42.207Z,7.33
2017-08-16T06:11:10.463Z,8.83
2017-08-16T06:13:40.015Z,8.90
2017-08-16T06:16:08.267Z,7.60
2017-08-16T06:18:36.641Z,8.20
2017-08-16T06:21:04.894Z,8.47
2017-08-16T06:23:33.195Z,8.47
2017-08-16T06:26:01.455Z,8.43
2017-08-16T06:28:29.751Z,7.70
2017-08-16T15:01:10.962Z,4.57
2017-08-16T15:03:39.251Z,4.73
2017-08-16T15:06:07.548Z,4.97
2017-08-16T15:08:35.871Z,5.00
2017-08-16T15:11:04.879Z,5.13
2017-08-16T15:13:33.162Z,4.57
2017-08-16T15:16:01.691Z,4.60
2017-08-16T15:18:29.970Z,4.50
2017-08-16T15:20:58.219Z,4.33
2017-08-16T15:23:26.522Z,4.87
2017-08-16T15:25:54.770Z,4.50
2017-08-16T15:28:23.966Z,4.00
2017-08-16T15:30:52.247Z,4.30
2017-08-16T15:33:20.502Z,4.90
2017-08-16T15:35:48.799Z,4.83
2017-08-16T15:38:17.051Z,4.83
2017-08-16T15:40:45.335Z,4.10
2017-08-16T15:43:13.586Z,5.10
2017-08-16T15:45:41.871Z,4.90
2017-08-16T15:48:10.239Z,4.37
2017-08-16T15:50:38.515Z,4.60
2017-08-16T15:53:06.767Z,5.33
2017-08-16T15:55:35.814Z,4.90
2017-08-16T15:58:04.062Z,4.73
2017-08-16T16:00:32.342Z,4.07
2017-08-16T16:03:00.599Z,4.60
2017-08-16T16:05:30.082Z,4.87
2017-08-16T16:07:58.439Z,5.00
2017-08-16T16:10:26.722Z,5.20
2017-08-16T16:12:54.983Z,5.43
2017-08-16T16:15:23.267Z,5.07
2017-08-16T16:17:51.523Z,4.97
2017-08-16T16:20:19.807Z,4.73
2017-08-16T16:22:48.059Z,4.53
2017-08-16T16:25:16.342Z,4.90
2017-08-16T16:27:45.368Z,4.60
2017-08-16T16:30:13.742Z,4.80
2017-08-16T16:32:41.991Z,4.50
2017-08-16T16:35:10.275Z,5.40
2017-08-16T16:37:38.574Z,4.93
2017-08-16T16:40:07.466Z,5.80
2017-08-16T16:42:35.862Z,5.47
2017-08-16T16:45:04.122Z,4.90
2017-08-16T16:47:32.407Z,4.57
2017-08-16T16:50:00.689Z,4.47
2017-08-16T16:52:28.955Z,4.70
2017-08-16T16:54:57.203Z,4.60
2017-08-16T16:57:25.499Z,4.70
2017-08-16T16:59:53.778Z,5.00
2017-08-16T17:02:22.150Z,4.70
2017-08-16T17:04:50.441Z,6.20
2017-08-16T17:07:18.815Z,5.00
2017-08-16T17:09:47.067Z,5.17
2017-08-16T17:12:15.466Z,4.43
2017-08-16T17:14:43.744Z,5.87
2017-08-16T17:17:12.026Z,5.30
2017-08-16T17:19:40.279Z,4.90
2017-08-16T17:22:08.583Z,4.77
2017-08-16T17:24:36.818Z,4.73
2017-08-16T17:27:05.099Z,5.30
2017-08-16T17:29:33.354Z,5.97
2017-08-16T17:32:01.638Z,6.10
2017-08-16T17:34:29.890Z,5.90
2017-08-16T17:36:59.050Z,6.47
2017-08-16T17:39:27.303Z,5.40
2017-08-16T17:41:55.590Z,6.03
2017-08-16T17:44:23.887Z,6.13
2017-08-16T17:46:52.170Z,5.57
2017-08-16T17:49:20.502Z,5.07
2017-08-16T17:51:49.660Z,5.33
2017-08-16T17:54:17.942Z,5.30
2017-08-16T17:56:47.002Z,5.40
2017-08-16T17:59:15.383Z,5.60
2017-08-16T18:01:43.644Z,5.77
2017-08-16T18:04:11.931Z,5.10
2017-08-16T18:06:40.206Z,5.63
2017-08-16T18:09:08.588Z,6.10
2017-08-16T18:11:36.870Z,5.77
2017-08-16T18:14:05.144Z,5.47
2017-08-16T18:16:33.523Z,5.40
2017-08-16T18:19:01.815Z,5.90
2017-08-16T18:21:30.059Z,4.70
2017-08-16T18:23:58.351Z,5.20
2017-08-16T18:26:26.611Z,5.70
2017-08-16T18:28:55.171Z,5.50
2017-08-16T18:31:24.298Z,6.30
2017-08-16T18:33:52.570Z,5.67
2017-08-16T18:36:20.859Z,6.03
2017-08-16T18:38:49.138Z,5.80
2017-08-16T18:41:17.415Z,6.20
2017-08-16T18:43:45.703Z,6.73
2017-08-16T18:46:14.963Z,7.63
2017-08-16T18:48:44.306Z,6.53
2017-08-16T18:51:12.546Z,7.00
2017-08-16T18:53:40.822Z,7.20
2017-08-16T18:56:09.118Z,6.00
2017-08-16T18:58:37.514Z,6.43
2017-08-16T19:01:05.771Z,6.40
2017-08-16T19:03:34.058Z,7.23
2017-08-16T19:06:02.326Z,7.13
2017-08-16T19:08:30.702Z,6.43
2017-08-16T19:10:59.314Z,7.43
2017-08-16T19:13:27.611Z,6.90
2017-08-16T19:15:56.663Z,6.83
2017-08-16T19:18:25.038Z,6.43
2017-08-16T19:20:53.320Z,7.00
2017-08-16T19:23:21.623Z,7.47
2017-08-16T19:25:50.655Z,6.90
2017-08-16T19:28:18.939Z,7.10
2017-08-16T19:30:47.190Z,6.73
2017-08-16T19:33:15.475Z,7.47
2017-08-16T19:35:43.731Z,8.03
2017-08-16T19:38:12.811Z,7.63
2017-08-16T19:40:41.098Z,6.90
2017-08-16T19:43:11.038Z,7.80
2017-08-16T19:45:39.314Z,7.30
2017-08-16T19:48:07.567Z,7.70
2017-08-16T19:50:36.619Z,8.57
2017-08-16T19:53:04.919Z,8.03
2017-08-16T19:55:33.279Z,8.50
2017-08-16T19:58:01.539Z,8.00
2017-08-16T20:00:29.830Z,7.63
2017-08-16T20:02:58.115Z,8.30
2017-08-16T20:05:26.505Z,8.20
2017-08-16T20:07:54.743Z,8.43
2017-08-16T20:10:23.027Z,8.37
2017-08-16T20:12:51.287Z,8.03
2017-08-16T20:15:19.595Z,7.60
2017-08-16T20:17:47.878Z,7.57
2017-08-16T20:20:16.174Z,7.27
2017-08-16T20:22:44.443Z,8.37
2017-08-16T20:25:12.699Z,7.33
2017-08-16T20:27:41.896Z,6.93
2017-08-16T20:30:10.183Z,7.87
2017-08-16T20:32:38.550Z,7.63
2017-08-16T20:35:06.827Z,8.00
2017-08-16T20:37:35.123Z,8.67
2017-08-16T20:40:03.382Z,8.33
2017-08-16T20:42:32.095Z,7.73
2017-08-16T20:45:00.360Z,8.87
2017-08-16T20:47:28.655Z,8.27
2017-08-16T20:49:57.702Z,8.60
2017-08-16T20:52:26.882Z,9.07
2017-08-16T20:54:55.208Z,9.50
2017-08-16T20:57:23.570Z,9.20
2017-08-16T20:59:51.862Z,9.50
2017-08-16T21:02:20.223Z,9.90
2017-08-16T21:04:48.590Z,10.17
2017-08-16T21:07:17.754Z,10.63
2017-08-16T21:09:46.042Z,9.70
2017-08-16T21:12:14.370Z,10.30
2017-08-16T21:14:42.734Z,11.50
2017-08-16T21:17:11.731Z,11.53
2017-08-16T21:19:39.995Z,11.90
2017-08-16T21:22:08.295Z,11.40
2017-08-16T21:24:36.550Z,9.70
2017-08-16T21:27:04.848Z,9.90
2017-08-16T21:29:33.206Z,10.80
2017-08-16T21:32:01.595Z,10.40
2017-08-16T21:34:29.891Z,12.00
2017-08-16T21:36:58.242Z,10.53
2017-08-16T21:39:26.645Z,11.30
2017-08-16T21:41:54.903Z,9.13
2017-08-16T21:44:23.283Z,11.97
2017-08-16T21:46:51.582Z,12.03
2017-08-16T21:49:19.939Z,12.27
2017-08-16T21:51:49.823Z,12.10
2017-08-16T21:54:18.131Z,11.17
2017-08-16T21:56:46.386Z,12.40
2017-08-16T21:59:14.678Z,12.70
2017-08-16T22:01:42.943Z,11.87
2017-08-16T22:04:11.236Z,9.40
2017-08-16T22:06:39.840Z,10.93
2017-08-16T22:09:08.143Z,11.30
2017-08-16T22:11:36.442Z,10.70
2017-08-16T22:14:04.752Z,11.20
2017-08-16T22:16:33.023Z,11.10
2017-08-16T22:19:01.320Z,12.10
2017-08-16T22:21:29.579Z,9.50
2017-08-16T22:23:57.867Z,11.70
2017-08-16T22:26:26.127Z,12.70
2017-08-16T22:28:54.738Z,13.00
2017-08-16T22:31:23.318Z,12.00
2017-08-16T22:33:51.678Z,12.07
2017-08-16T22:36:19.943Z,11.40
2017-08-16T22:38:48.235Z,10.90
2017-08-16T22:41:16.504Z,13.17
2017-08-16T22:43:44.798Z,12.30
